Time;durP1;ratioP1;P1;durP2;ratioP2;P2;SDS_P1;SDS_P2;PMS_P1;PMS_P2;Temp;Humidity;BMP_temperature;BMP_pressure;BME280_temperature;BME280_humidity;BME280_pressure;Samples;Min_cycle;Max_cycle;Signal;HPM_P1;HPM_P2
2022/10/25 00:01:25;;;;;;;22.40;16.50;;;;;;;13.59;98.62;98327.95;106490;1299;138272;-82
2022/10/25 00:03:52;;;;;;;26.80;17.20;;;;;;;13.58;98.86;98329.21;106654;1286;22899;-82
2022/10/25 00:06:19;;;;;;;24.80;16.90;;;;;;;13.58;98.87;98329.64;106520;1314;138605;-81
2022/10/25 00:08:45;;;;;;;25.50;17.60;;;;;;;13.57;98.95;98327.22;106615;1314;22747;-81
2022/10/25 00:11:42;;;;;;;23.00;16.50;;;;;;;13.56;99.03;98323.94;106619;1301;22242;-81
2022/10/25 00:14:08;;;;;;;25.30;16.80;;;;;;;13.55;99.16;98327.16;105806;1319;22356;-81
2022/10/25 00:16:36;;;;;;;22.10;15.70;;;;;;;13.56;99.19;98321.25;105702;1319;22747;-81
2022/10/25 00:19:05;;;;;;;25.10;16.80;;;;;;;13.56;99.23;98324.86;105421;1303;138518;-81
2022/10/25 00:21:31;;;;;;;26.40;17.70;;;;;;;13.56;99.33;98326.35;105754;1319;22219;-81
2022/10/25 00:23:58;;;;;;;23.90;16.80;;;;;;;13.56;99.47;98328.97;106080;1301;138579;-81
2022/10/25 00:26:27;;;;;;;23.60;16.30;;;;;;;13.57;99.39;98331.05;105846;1319;22865;-81
2022/10/25 00:28:54;;;;;;;24.90;17.50;;;;;;;13.57;99.40;98329.25;105833;1319;22900;-81
2022/10/25 00:31:21;;;;;;;20.90;15.30;;;;;;;13.57;99.37;98324.11;105725;1318;138723;-80
2022/10/25 00:33:48;;;;;;;22.20;16.40;;;;;;;13.57;99.44;98320.48;105661;1303;22831;-80
2022/10/25 00:36:23;;;;;;;23.30;16.00;;;;;;;13.58;99.49;98316.72;105592;1309;138633;-80
2022/10/25 00:38:50;;;;;;;21.50;16.10;;;;;;;13.58;99.49;98309.56;105830;1316;22881;-80
2022/10/25 00:41:29;;;;;;;23.90;16.20;;;;;;;13.57;99.28;98307.64;105774;1318;22150;-80
2022/10/25 00:44:15;;;;;;;;;;;;;;;13.56;99.45;98312.06;105653;1303;138807;-80
2022/10/25 00:46:43;;;;;;;21.10;14.40;;;;;;;13.51;99.79;98317.41;105678;1320;22891;-80
2022/10/25 00:49:11;;;;;;;15.90;12.70;;;;;;;13.47;99.93;98315.31;105720;1319;138721;-80
2022/10/25 00:51:43;;;;;;;18.90;13.40;;;;;;;13.44;99.98;98318.91;106693;1302;22057;-80
2022/10/25 00:54:13;;;;;;;21.10;15.50;;;;;;;13.41;100.00;98321.80;106483;1310;138551;-80
2022/10/25 00:56:46;;;;;;;22.30;15.30;;;;;;;13.40;100.00;98327.88;106635;1310;22814;-80
2022/10/25 00:59:22;;;;;;;22.20;15.70;;;;;;;13.39;100.00;98325.67;106636;1310;22298;-80
2022/10/25 01:01:48;;;;;;;23.20;15.70;;;;;;;13.39;100.00;98329.35;106521;1310;138497;-80
2022/10/25 01:04:17;;;;;;;25.40;14.90;;;;;;;13.38;100.00;98328.23;106536;1301;22331;-81
2022/10/25 01:06:49;;;;;;;22.40;14.90;;;;;;;13.39;100.00;98325.95;106453;1310;138685;-80
2022/10/25 01:09:20;;;;;;;21.90;15.80;;;;;;;13.40;100.00;98328.20;106539;1310;22798;-80
2022/10/25 01:11:46;;;;;;;20.00;15.50;;;;;;;13.41;100.00;98322.95;106386;1310;138692;-80
2022/10/25 01:14:15;;;;;;;22.80;15.70;;;;;;;13.42;100.00;98321.64;106639;1296;22107;-80
2022/10/25 01:16:41;;;;;;;;;;;;;;;13.42;100.00;98318.52;106633;1310;22478;-80
2022/10/25 01:19:43;;;;;;;19.10;12.60;;;;;;;13.42;100.00;98316.39;106751;1303;124669;-80
2022/10/25 01:22:30;;;;;;;21.00;13.70;;;;;;;13.41;100.00;98311.03;106576;1310;22259;-80
2022/10/25 01:25:24;;;;;;;21.80;14.60;;;;;;;13.40;100.00;98313.77;106413;1310;138506;-80
2022/10/25 01:28:00;;;;;;;21.60;14.40;;;;;;;13.41;100.00;98311.73;106632;1310;22367;-80
2022/10/25 01:31:04;;;;;;;19.60;14.40;;;;;;;13.40;100.00;98311.14;106454;1310;138632;-81
2022/10/25 01:33:53;;;;;;;22.10;14.80;;;;;;;13.40;100.00;98315.14;106558;1302;22118;-81
2022/10/25 01:36:58;;;;;;;21.90;14.40;;;;;;;13.40;100.00;98315.40;106503;1308;138718;-80
2022/10/25 01:39:37;;;;;;;23.10;15.30;;;;;;;13.39;100.00;98319.06;105968;1319;22251;-80
2022/10/25 01:42:12;;;;;;;24.70;15.30;;;;;;;13.39;100.00;98314.47;105844;1317;138992;-80
2022/10/25 01:45:09;;;;;;;23.40;16.10;;;;;;;13.40;100.00;98320.38;105955;1308;22281;-80
2022/10/25 01:47:48;;;;;;;26.80;16.90;;;;;;;13.41;100.00;98318.80;105899;1317;22191;-79
2022/10/25 01:50:31;;;;;;;22.50;16.30;;;;;;;13.42;100.00;98318.58;105904;1317;22200;-79
2022/10/25 01:52:57;;;;;;;26.30;16.10;;;;;;;13.43;100.00;98319.89;105770;1318;22955;-80
2022/10/25 01:55:30;;;;;;;26.10;16.90;;;;;;;13.44;100.00;98319.52;105798;1302;138809;-79
2022/10/25 01:58:33;;;;;;;25.40;17.30;;;;;;;13.45;100.00;98320.39;105889;1317;22202;-80
2022/10/25 02:01:30;;;;;;;26.90;17.80;;;;;;;13.45;100.00;98320.29;105784;1317;138828;-79
2022/10/25 02:04:01;;;;;;;27.20;17.70;;;;;;;13.44;100.00;98315.20;106065;1303;24141;-79
2022/10/25 02:06:37;;;;;;;30.50;19.20;;;;;;;13.43;100.00;98315.02;105978;1316;138826;-80
2022/10/25 02:09:17;;;;;;;36.30;18.10;;;;;;;13.43;100.00;98312.13;106088;1316;22960;-79
2022/10/25 02:11:44;;;;;;;25.60;18.00;;;;;;;13.42;100.00;98311.35;106080;1316;138814;-79
2022/10/25 02:14:25;;;;;;;28.50;18.50;;;;;;;13.39;100.00;98313.42;106039;1303;22357;-79
2022/10/25 02:16:51;;;;;;;28.70;20.10;;;;;;;13.36;100.00;98317.73;106431;1310;23078;-80
2022/10/25 02:19:27;;;;;;;25.50;18.10;;;;;;;13.34;99.96;98327.84;106515;1310;138677;-80
2022/10/25 02:21:54;;;;;;;29.50;20.20;;;;;;;13.30;99.96;98332.28;106600;1310;22387;-79
2022/10/25 02:24:27;;;;;;;30.70;20.10;;;;;;;13.26;100.00;98335.91;106467;1298;138796;-80
2022/10/25 02:26:55;;;;;;;28.40;19.30;;;;;;;13.25;100.00;98340.52;106489;1312;22113;-80
2022/10/25 02:29:23;;;;;;;26.10;18.50;;;;;;;13.24;100.00;98339.70;106574;1310;22308;-80
2022/10/25 02:31:50;;;;;;;25.00;18.40;;;;;;;13.24;100.00;98340.45;106458;1310;138760;-81
2022/10/25 02:34:18;;;;;;;29.00;18.50;;;;;;;13.23;100.00;98333.45;106546;1309;22347;-80
2022/10/25 02:36:52;;;;;;;25.10;18.50;;;;;;;13.23;100.00;98331.64;106373;1296;138786;-80
2022/10/25 02:39:20;;;;;;;27.00;18.20;;;;;;;13.24;100.00;98336.74;106455;1310;22129;-80
2022/10/25 02:41:47;;;;;;;25.00;16.60;;;;;;;13.25;100.00;98339.25;106448;1310;138620;-79
2022/10/25 02:44:16;;;;;;;29.10;18.40;;;;;;;13.26;100.00;98336.46;106596;1310;22924;-80
2022/10/25 02:46:42;;;;;;;25.20;17.00;;;;;;;13.26;100.00;98337.11;106553;1296;22219;-80
2022/10/25 02:49:08;;;;;;;26.50;17.80;;;;;;;13.27;100.00;98331.81;106466;1304;138557;-80
2022/10/25 02:51:34;;;;;;;25.00;17.30;;;;;;;13.28;100.00;98331.67;106550;1310;22124;-80
2022/10/25 02:54:00;;;;;;;25.90;18.50;;;;;;;13.28;100.00;98331.99;106452;1310;138710;-80
2022/10/25 02:56:26;;;;;;;28.30;18.10;;;;;;;13.30;100.00;98335.52;106555;1310;22076;-80
2022/10/25 02:58:55;;;;;;;26.30;18.20;;;;;;;13.30;100.00;98335.13;106566;1311;22164;-80
2022/10/25 03:01:21;;;;;;;23.50;17.40;;;;;;;13.30;100.00;98333.16;106453;1310;138708;-80
2022/10/25 03:03:48;;;;;;;25.60;17.00;;;;;;;13.30;100.00;98336.27;106581;1309;22113;-80
2022/10/25 03:06:15;;;;;;;25.90;16.40;;;;;;;13.29;100.00;98331.45;106202;1311;138962;-80
2022/10/25 03:08:42;;;;;;;26.20;15.80;;;;;;;13.29;100.00;98329.20;106601;1310;22281;-80
2022/10/25 03:11:10;;;;;;;21.40;13.80;;;;;;;13.27;99.91;98323.79;106483;1310;22127;-80
2022/10/25 03:13:36;;;;;;;22.30;14.20;;;;;;;13.25;99.76;98318.91;106352;1310;139120;-80
2022/10/25 03:16:03;;;;;;;17.80;12.70;;;;;;;13.23;99.59;98313.27;106599;1296;22205;-82
2022/10/25 03:18:30;;;;;;;22.50;13.40;;;;;;;13.20;99.50;98314.61;106346;1312;138631;-80
2022/10/25 03:21:00;;;;;;;17.20;13.20;;;;;;;13.17;99.29;98316.34;106556;1310;22243;-80
2022/10/25 03:23:28;;;;;;;18.70;13.40;;;;;;;13.15;99.24;98323.29;106680;1291;22742;-80
2022/10/25 03:25:56;;;;;;;18.70;13.30;;;;;;;13.11;99.24;98322.06;106440;1298;138885;-80
2022/10/25 03:28:24;;;;;;;20.30;11.80;;;;;;;13.09;99.24;98328.23;106553;1310;22166;-80
2022/10/25 03:30:50;;;;;;;20.30;13.60;;;;;;;13.07;99.29;98333.14;106464;1303;138434;-80
2022/10/25 03:33:16;;;;;;;18.30;14.10;;;;;;;13.04;99.23;98329.77;106839;1302;22105;-80
2022/10/25 03:35:42;;;;;;;22.70;12.90;;;;;;;13.03;99.11;98336.39;106571;1296;22418;-80
2022/10/25 03:38:09;;;;;;;20.10;13.20;;;;;;;13.01;99.27;98334.91;106752;1303;138339;-80
2022/10/25 03:40:37;;;;;;;17.60;12.80;;;;;;;12.99;99.34;98335.50;106608;1310;22175;-80
2022/10/25 03:43:04;;;;;;;18.50;12.90;;;;;;;12.97;99.27;98332.04;106757;1296;138612;-80
2022/10/25 03:45:30;;;;;;;16.10;12.40;;;;;;;12.96;99.24;98333.07;106613;1305;22321;-80
2022/10/25 03:47:56;;;;;;;18.90;12.90;;;;;;;12.95;99.36;98335.79;106413;1297;138547;-80
2022/10/25 03:50:22;;;;;;;17.50;12.20;;;;;;;12.93;99.42;98339.45;106856;1302;22836;-81
2022/10/25 03:52:48;;;;;;;21.30;12.70;;;;;;;12.93;99.42;98343.91;106592;1303;22114;-80
2022/10/25 03:55:14;;;;;;;19.30;13.30;;;;;;;12.91;99.56;98345.98;106458;1310;138598;-80
2022/10/25 03:57:40;;;;;;;18.30;12.30;;;;;;;12.90;99.68;98347.62;106590;1296;23068;-80
2022/10/25 04:00:08;;;;;;;17.80;12.70;;;;;;;12.90;99.70;98348.34;106385;1310;138756;-80
2022/10/25 04:02:40;;;;;;;19.20;13.10;;;;;;;12.89;99.60;98349.48;106608;1309;22868;-80
2022/10/25 04:05:06;;;;;;;19.90;14.60;;;;;;;12.88;99.80;98356.09;106648;1310;22182;-80
2022/10/25 04:07:32;;;;;;;23.70;14.10;;;;;;;12.88;99.89;98354.02;106480;1301;138662;-80
2022/10/25 04:09:58;;;;;;;21.00;15.10;;;;;;;12.88;99.97;98350.62;106562;1312;22064;-81
2022/10/25 04:12:24;;;;;;;22.80;15.20;;;;;;;12.87;100.00;98346.23;106429;1310;138943;-81
2022/10/25 04:14:50;;;;;;;23.00;15.70;;;;;;;12.86;100.00;98350.44;106470;1312;22102;-80
2022/10/25 04:17:17;;;;;;;25.40;15.30;;;;;;;12.87;100.00;98345.91;106578;1295;22118;-81
2022/10/25 04:19:43;;;;;;;25.70;16.00;;;;;;;12.87;100.00;98344.55;106459;1295;138819;-81
2022/10/25 04:22:11;;;;;;;25.40;16.00;;;;;;;12.88;100.00;98348.43;106607;1310;22287;-81
2022/10/25 04:24:38;;;;;;;25.40;16.40;;;;;;;12.88;100.00;98348.60;106378;1313;139189;-80
2022/10/25 04:27:04;;;;;;;24.70;17.30;;;;;;;12.87;100.00;98351.61;106546;1297;22128;-81
2022/10/25 04:29:30;;;;;;;22.50;16.80;;;;;;;12.87;100.00;98350.89;106489;1310;22086;-82
2022/10/25 04:31:57;;;;;;;25.40;17.50;;;;;;;12.85;100.00;98351.95;106480;1310;138763;-83
2022/10/25 04:34:23;;;;;;;27.30;18.10;;;;;;;12.85;100.00;98356.55;106547;1310;22155;-82
2022/10/25 04:36:49;;;;;;;26.20;17.70;;;;;;;12.83;100.00;98353.20;106436;1310;138825;-81
2022/10/25 04:39:15;;;;;;;29.50;18.50;;;;;;;12.81;100.00;98348.76;106589;1309;22252;-82
2022/10/25 04:41:41;;;;;;;26.40;17.90;;;;;;;12.80;100.00;98352.80;106610;1309;22124;-83
2022/10/25 04:44:08;;;;;;;28.00;18.10;;;;;;;12.78;100.00;98358.19;106797;1303;138573;-81
2022/10/25 04:46:34;;;;;;;28.70;18.60;;;;;;;12.75;100.00;98356.80;106634;1303;22888;-82
2022/10/25 04:49:01;;;;;;;32.40;21.20;;;;;;;12.73;100.00;98362.97;106438;1296;138851;-83
2022/10/25 04:51:27;;;;;;;30.20;20.80;;;;;;;12.71;100.00;98362.24;106817;1302;22252;-81
2022/10/25 04:53:54;;;;;;;30.00;21.20;;;;;;;12.69;100.00;98361.18;106459;1304;138898;-80
2022/10/25 04:56:24;;;;;;;35.40;22.20;;;;;;;12.67;100.00;98360.30;106601;1310;22102;-81
2022/10/25 04:58:50;;;;;;;31.70;20.10;;;;;;;12.65;100.00;98363.95;106514;1296;22311;-82
2022/10/25 05:01:17;;;;;;;33.70;21.40;;;;;;;12.63;100.00;98363.16;106400;1310;138838;-81
2022/10/25 05:03:44;;;;;;;32.90;19.90;;;;;;;12.61;100.00;98367.58;106388;1305;22170;-80
2022/10/25 05:06:14;;;;;;;31.30;21.40;;;;;;;12.60;100.00;98368.92;106450;1310;138990;-81
2022/10/25 05:08:43;;;;;;;32.30;20.60;;;;;;;12.57;100.00;98369.45;106542;1307;22143;-80
2022/10/25 05:11:11;;;;;;;34.20;21.20;;;;;;;12.57;100.00;98363.98;106461;1310;22197;-82
2022/10/25 05:13:38;;;;;;;28.60;20.30;;;;;;;12.54;100.00;98358.55;106483;1294;138501;-81
2022/10/25 05:16:05;;;;;;;36.30;23.60;;;;;;;12.53;100.00;98361.16;106566;1310;22291;-80
2022/10/25 05:18:33;;;;;;;35.60;23.40;;;;;;;12.52;100.00;98360.23;106472;1296;138904;-81
2022/10/25 05:21:05;;;;;;;30.20;20.00;;;;;;;12.50;100.00;98364.37;106458;1310;22338;-81
2022/10/25 05:23:34;;;;;;;35.00;22.20;;;;;;;12.50;100.00;98364.31;106630;1310;22140;-81
2022/10/25 05:26:08;;;;;;;;;;;;;;;12.49;100.00;98362.55;106510;1304;138754;-79
2022/10/25 05:28:36;;;;;;;27.30;18.10;;;;;;;12.45;100.00;98362.89;106507;1297;22612;-81
2022/10/25 05:31:17;;;;;;;27.90;18.70;;;;;;;12.42;100.00;98357.96;106706;1302;138623;-82
2022/10/25 05:33:44;;;;;;;32.70;20.50;;;;;;;12.40;100.00;98359.73;106535;1310;22963;-81
2022/10/25 05:36:11;;;;;;;31.60;19.10;;;;;;;12.37;100.00;98359.05;106419;1310;138639;-80
2022/10/25 05:38:38;;;;;;;25.00;17.20;;;;;;;12.32;100.00;98358.14;106472;1296;22265;-82
2022/10/25 05:41:05;;;;;;;28.60;19.20;;;;;;;12.29;100.00;98360.52;106641;1302;22381;-82
2022/10/25 05:43:32;;;;;;;26.70;17.40;;;;;;;12.27;100.00;98356.35;106503;1310;138755;-82
2022/10/25 05:46:06;;;;;;;21.10;15.20;;;;;;;12.24;100.00;98359.38;106833;1303;22469;-82
2022/10/25 05:48:34;;;;;;;27.60;18.80;;;;;;;12.22;100.00;98361.27;106474;1301;138750;-82
2022/10/25 05:51:28;;;;;;;29.00;18.90;;;;;;;12.20;100.00;98363.12;106457;1306;22410;-82
2022/10/25 05:53:56;;;;;;;32.50;18.60;;;;;;;12.18;100.00;98367.07;106408;1310;139216;-81
2022/10/25 05:56:24;;;;;;;23.80;15.60;;;;;;;12.18;100.00;98370.02;106553;1310;22210;-82
2022/10/25 05:58:51;;;;;;;25.10;16.40;;;;;;;12.18;100.00;98373.88;106533;1296;22054;-82
2022/10/25 06:01:20;;;;;;;25.60;16.80;;;;;;;12.17;100.00;98375.36;106418;1310;138613;-82
2022/10/25 06:03:47;;;;;;;21.20;14.40;;;;;;;12.17;100.00;98379.67;106503;1309;21987;-82
2022/10/25 06:06:14;;;;;;;23.20;15.80;;;;;;;12.16;100.00;98381.89;106457;1310;138899;-82
2022/10/25 06:08:40;;;;;;;21.20;15.40;;;;;;;12.17;100.00;98389.02;106551;1299;22361;-82
2022/10/25 06:11:10;;;;;;;22.20;15.30;;;;;;;12.18;100.00;98393.55;106769;1302;22272;-81
2022/10/25 06:13:37;;;;;;;24.70;14.40;;;;;;;12.19;100.00;98392.95;106404;1310;139171;-82
2022/10/25 06:16:05;;;;;;;20.20;14.90;;;;;;;12.21;100.00;98396.37;106538;1310;22071;-74
2022/10/25 06:18:32;;;;;;;21.00;13.70;;;;;;;12.24;100.00;98397.27;106371;1302;138830;-81
2022/10/25 06:21:04;;;;;;;23.30;13.90;;;;;;;12.27;100.00;98401.57;106585;1304;23052;-81
2022/10/25 06:23:30;;;;;;;21.10;13.60;;;;;;;12.30;100.00;98398.64;106636;1308;22058;-82
2022/10/25 06:26:01;;;;;;;23.50;13.70;;;;;;;12.31;100.00;98405.15;106530;1310;138642;-82
2022/10/25 06:28:29;;;;;;;16.00;12.20;;;;;;;12.32;100.00;98407.35;106513;1310;22185;-81
2022/10/25 06:31:25;;;;;;;18.40;13.10;;;;;;;12.32;100.00;98405.27;106520;1296;138824;-75
2022/10/25 06:33:51;;;;;;;16.90;11.00;;;;;;;12.35;100.00;98411.25;106491;1301;22191;-76
2022/10/25 06:36:19;;;;;;;18.60;12.30;;;;;;;12.38;100.00;98411.39;106458;1301;138705;-82
2022/10/25 06:38:47;;;;;;;18.40;12.80;;;;;;;12.40;99.97;98419.49;106451;1312;23053;-82
2022/10/25 06:41:16;;;;;;;19.50;12.60;;;;;;;12.44;100.00;98423.36;106528;1295;22259;-82
2022/10/25 06:43:42;;;;;;;20.90;14.00;;;;;;;12.48;99.93;98429.73;106480;1310;138688;-82
2022/10/25 06:46:11;;;;;;;22.30;13.90;;;;;;;12.51;99.97;98436.81;106551;1310;22362;-82
2022/10/25 06:48:38;;;;;;;22.90;14.30;;;;;;;12.53;99.86;98440.60;106468;1310;138377;-82
2022/10/25 06:51:08;;;;;;;22.80;15.10;;;;;;;12.55;99.85;98444.66;106818;1289;22299;-83
2022/10/25 06:53:36;;;;;;;24.90;16.70;;;;;;;12.58;99.92;98441.86;106607;1310;22166;-83
2022/10/25 06:56:05;;;;;;;26.80;16.30;;;;;;;12.61;99.86;98447.61;106494;1310;138287;-83
2022/10/25 06:58:32;;;;;;;;;;;;;;;12.62;99.83;98439.38;106628;1310;22373;-83
2022/10/25 07:01:07;;;;;;;28.10;16.70;;;;;;;12.61;99.71;98439.87;106438;1298;124598;-83
2022/10/25 07:03:36;;;;;;;36.80;18.10;;;;;;;12.62;99.60;98436.70;106512;1306;22856;-83
2022/10/25 07:06:05;;;;;;;24.70;16.20;;;;;;;12.63;99.43;98434.95;106422;1304;138592;-83
2022/10/25 07:08:32;;;;;;;30.50;16.40;;;;;;;12.66;99.64;98436.68;106555;1310;22277;-81
2022/10/25 07:10:58;;;;;;;27.60;16.30;;;;;;;12.69;99.56;98437.65;106404;1298;22488;-82
2022/10/25 07:13:25;;;;;;;35.50;15.10;;;;;;;12.76;99.61;98445.23;106479;1310;138991;-82
2022/10/25 07:15:51;;;;;;;27.20;15.80;;;;;;;12.82;99.77;98449.51;106605;1310;22079;-82
2022/10/25 07:18:17;;;;;;;20.80;13.40;;;;;;;12.88;99.93;98451.05;106509;1310;138710;-82
2022/10/25 07:20:47;;;;;;;20.40;14.50;;;;;;;12.96;100.00;98455.64;106562;1296;22079;-82
2022/10/25 07:23:14;;;;;;;20.20;12.50;;;;;;;13.05;100.00;98460.74;106824;1302;22068;-82
2022/10/25 07:25:41;;;;;;;17.70;12.40;;;;;;;13.16;100.00;98465.04;106461;1310;138487;-82
2022/10/25 07:28:08;;;;;;;22.30;12.00;;;;;;;13.25;99.98;98468.17;106465;1310;22328;-81
2022/10/25 07:30:34;;;;;;;29.60;12.30;;;;;;;13.32;99.63;98470.54;106361;1299;139145;-82
2022/10/25 07:33:02;;;;;;;20.90;12.10;;;;;;;13.38;99.24;98471.20;106613;1310;22129;-82
2022/10/25 07:35:28;;;;;;;18.20;11.50;;;;;;;13.42;99.24;98473.63;106598;1310;22312;-82
2022/10/25 07:37:54;;;;;;;18.10;11.60;;;;;;;13.45;98.68;98474.09;106730;1302;138379;-82
2022/10/25 07:40:20;;;;;;;16.50;11.40;;;;;;;13.50;98.51;98481.23;106555;1296;22225;-82
2022/10/25 07:42:48;;;;;;;17.50;11.50;;;;;;;13.54;98.51;98475.90;106503;1310;138584;-82
2022/10/25 07:45:14;;;;;;;17.20;11.30;;;;;;;13.59;98.48;98473.08;106611;1310;22349;-81
2022/10/25 07:47:41;;;;;;;18.00;11.20;;;;;;;13.61;98.15;98472.44;106526;1310;22179;-82
2022/10/25 07:50:07;;;;;;;24.40;10.80;;;;;;;13.65;97.89;98470.31;106774;1303;138382;-82
2022/10/25 07:52:33;;;;;;;16.40;11.40;;;;;;;13.69;97.78;98465.86;106594;1297;23006;-81
2022/10/25 07:54:59;;;;;;;14.60;10.00;;;;;;;13.75;97.50;98458.39;106466;1309;138637;-82
2022/10/25 07:57:25;;;;;;;15.20;9.50;;;;;;;13.81;97.36;98449.00;106588;1310;23274;-83
2022/10/25 07:59:51;;;;;;;16.10;10.80;;;;;;;13.86;96.92;98445.58;106478;1310;138344;-82
2022/10/25 08:02:17;;;;;;;18.50;10.00;;;;;;;13.91;96.29;98435.69;106605;1296;22344;-81
2022/10/25 08:04:44;;;;;;;14.20;9.70;;;;;;;13.95;95.75;98427.10;106640;1310;22217;-82
2022/10/25 08:07:10;;;;;;;11.70;8.90;;;;;;;13.98;95.47;98423.89;106513;1302;138638;-81
2022/10/25 08:09:36;;;;;;;13.70;8.90;;;;;;;14.03;95.33;98420.73;106568;1310;22350;-82
2022/10/25 08:12:02;;;;;;;13.40;9.10;;;;;;;14.07;95.08;98415.05;106438;1298;138367;-82
2022/10/25 08:14:28;;;;;;;12.20;8.80;;;;;;;14.13;94.98;98416.60;106542;1304;22209;-82
2022/10/25 08:16:54;;;;;;;14.10;8.50;;;;;;;14.18;94.82;98411.63;106583;1303;22897;-81
2022/10/25 08:19:20;;;;;;;12.50;7.50;;;;;;;14.25;94.34;98412.58;106446;1310;138424;-82
2022/10/25 08:21:47;;;;;;;12.10;8.00;;;;;;;14.31;93.70;98412.10;106560;1291;22203;-81
2022/10/25 08:24:13;;;;;;;11.60;7.10;;;;;;;14.38;93.64;98411.24;106492;1310;138761;-82
2022/10/25 08:26:40;;;;;;;9.40;6.70;;;;;;;14.45;92.78;98412.79;106596;1310;23141;-81
2022/10/25 08:29:07;;;;;;;9.70;6.80;;;;;;;14.51;92.44;98414.77;106623;1309;22972;-83
2022/10/25 08:31:33;;;;;;;12.30;7.30;;;;;;;14.58;92.31;98414.63;106462;1298;138071;-82
2022/10/25 08:33:59;;;;;;;9.00;6.50;;;;;;;14.66;91.51;98409.83;106521;1310;22184;-82
2022/10/25 08:36:26;;;;;;;8.30;5.80;;;;;;;14.73;91.20;98403.20;106340;1311;138352;-83
2022/10/25 08:38:53;;;;;;;12.20;6.10;;;;;;;14.80;90.53;98405.88;106560;1310;22348;-83
2022/10/25 08:41:35;;;;;;;8.50;5.70;;;;;;;14.90;90.48;98408.52;106560;1310;22201;-82
2022/10/25 08:44:04;;;;;;;8.10;5.60;;;;;;;14.99;90.41;98415.76;106657;1302;137963;-82
2022/10/25 08:46:36;;;;;;;11.40;6.10;;;;;;;15.10;90.28;98419.22;106567;1306;22285;-82
2022/10/25 08:49:10;;;;;;;6.40;4.60;;;;;;;15.20;89.69;98421.99;106477;1310;138260;-82
2022/10/25 08:51:40;;;;;;;9.00;5.90;;;;;;;15.29;89.08;98431.69;106535;1304;22119;-82
2022/10/25 08:54:22;;;;;;;9.20;4.50;;;;;;;15.36;88.11;98438.98;106371;1302;137718;-82
2022/10/25 08:56:51;;;;;;;6.40;5.10;;;;;;;15.42;86.89;98442.59;106526;1300;22184;-81
2022/10/25 08:59:26;;;;;;;10.80;5.20;;;;;;;15.45;87.13;98445.63;106599;1309;22207;-82
2022/10/25 09:01:58;;;;;;;8.70;4.90;;;;;;;15.43;86.83;98444.51;106590;1297;138475;-83
2022/10/25 09:04:24;;;;;;;9.00;5.00;;;;;;;15.43;86.74;98450.83;106813;1287;22180;-82
2022/10/25 09:07:26;;;;;;;10.40;4.70;;;;;;;15.42;86.17;98457.63;106430;1310;138171;-82
2022/10/25 09:10:08;;;;;;;7.10;4.50;;;;;;;15.40;85.34;98457.74;105958;1317;22175;-82
2022/10/25 09:12:34;;;;;;;9.00;4.30;;;;;;;15.38;85.31;98461.87;105781;1304;138276;-82
2022/10/25 09:15:33;;;;;;;6.40;4.20;;;;;;;15.37;85.44;98465.98;105825;1318;22396;-81
2022/10/25 09:18:07;;;;;;;9.60;4.20;;;;;;;15.34;84.45;98469.77;105692;1318;138113;-83
2022/10/25 09:20:44;;;;;;;7.40;3.90;;;;;;;15.32;84.18;98468.12;105720;1318;22265;-82
2022/10/25 09:23:19;;;;;;;4.00;3.20;;;;;;;15.32;83.93;98473.23;105819;1303;22174;-83
2022/10/25 09:25:55;;;;;;;9.50;3.60;;;;;;;15.33;83.65;98471.63;105757;1317;138109;-82
2022/10/25 09:28:46;;;;;;;5.90;3.40;;;;;;;15.32;82.74;98470.11;105882;1318;22409;-83
2022/10/25 09:31:17;;;;;;;10.60;3.60;;;;;;;15.31;82.60;98473.28;105743;1317;138199;-84
2022/10/25 09:33:46;;;;;;;6.60;3.80;;;;;;;15.29;82.88;98478.73;105998;1310;238821;-83
2022/10/25 09:36:13;;;;;;;6.80;3.70;;;;;;;15.26;82.24;98477.45;105613;1318;139132;-82
2022/10/25 09:38:48;;;;;;;8.20;3.90;;;;;;;15.21;83.06;98474.94;105821;1318;22210;-80
2022/10/25 09:41:50;;;;;;;8.30;4.30;;;;;;;15.17;83.29;98471.21;105823;1318;22296;-82
2022/10/25 09:44:19;;;;;;;7.40;4.00;;;;;;;15.11;83.73;98474.34;105805;1302;22281;-83
2022/10/25 09:47:01;;;;;;;5.40;4.10;;;;;;;15.06;84.02;98483.22;106358;1312;22154;-82
2022/10/25 09:49:55;;;;;;;5.50;3.50;;;;;;;15.00;83.95;98485.03;106396;1312;137068;-82
2022/10/25 09:52:25;;;;;;;4.50;3.40;;;;;;;14.91;84.13;98484.74;106486;1310;22202;-83
2022/10/25 09:55:05;;;;;;;4.50;3.50;;;;;;;14.85;84.77;98481.45;106355;1296;138046;-81
2022/10/25 09:57:32;;;;;;;6.80;3.60;;;;;;;14.79;85.32;98481.34;106529;1311;22736;-82
2022/10/25 09:59:58;;;;;;;7.20;4.00;;;;;;;14.75;85.60;98479.63;106446;1310;138146;-81
2022/10/25 10:02:26;;;;;;;8.50;3.90;;;;;;;14.72;86.32;98477.92;106574;1306;22368;-82
2022/10/25 10:04:52;;;;;;;13.20;3.70;;;;;;;14.69;86.80;98482.80;106540;1303;22189;-83
2022/10/25 10:07:28;;;;;;;9.30;3.70;;;;;;;14.64;86.84;98482.08;106421;1310;138399;-82
2022/10/25 10:09:57;;;;;;;21.40;3.90;;;;;;;14.59;86.87;98481.45;106523;1310;22203;-82
2022/10/25 10:12:29;;;;;;;21.60;4.80;;;;;;;14.56;87.33;98479.67;106476;1309;138406;-82
2022/10/25 10:15:05;;;;;;;14.30;4.30;;;;;;;14.53;87.86;98477.52;106419;1297;22300;-81
2022/10/25 10:17:32;;;;;;;7.70;3.20;;;;;;;14.51;88.11;98480.31;106511;1310;22139;-82
2022/10/25 10:20:17;;;;;;;6.60;4.30;;;;;;;14.49;88.19;98480.26;106375;1310;138684;-83
2022/10/25 10:22:50;;;;;;;6.00;3.60;;;;;;;14.45;88.03;98482.33;106481;1310;22223;-82
2022/10/25 10:25:23;;;;;;;6.00;3.50;;;;;;;14.41;88.09;98481.34;106422;1296;138230;-83
2022/10/25 10:27:52;;;;;;;5.10;3.90;;;;;;;14.39;88.63;98483.95;106669;1290;23195;-82
2022/10/25 10:30:29;;;;;;;7.80;4.10;;;;;;;14.38;88.49;98484.55;106441;1313;138758;-83
2022/10/25 10:33:00;;;;;;;6.00;4.10;;;;;;;14.37;88.64;98488.77;106600;1309;22140;-82
2022/10/25 10:35:39;;;;;;;5.00;3.40;;;;;;;14.38;88.98;98484.06;106565;1294;22199;-83
2022/10/25 10:38:19;;;;;;;4.40;3.80;;;;;;;14.37;88.59;98478.63;106670;1302;137981;-83
2022/10/25 10:40:45;;;;;;;5.30;3.80;;;;;;;14.34;88.38;98476.80;106521;1299;22078;-82
2022/10/25 10:43:30;;;;;;;6.10;4.20;;;;;;;14.31;88.70;98478.35;106388;1310;138075;-83
2022/10/25 10:46:01;;;;;;;5.20;3.60;;;;;;;14.27;88.62;98481.50;106447;1298;22206;-83
2022/10/25 10:48:32;;;;;;;8.00;3.60;;;;;;;14.24;88.73;98477.33;106368;1310;138398;-84
2022/10/25 10:50:59;;;;;;;7.80;3.90;;;;;;;14.22;88.95;98480.17;106584;1310;22192;-83
2022/10/25 10:53:30;;;;;;;6.90;3.70;;;;;;;14.22;89.40;98475.13;106603;1310;23058;-84
2022/10/25 10:56:00;;;;;;;6.00;3.80;;;;;;;14.26;89.15;98473.17;106463;1310;139480;-83
2022/10/25 10:58:33;;;;;;;6.10;4.10;;;;;;;14.28;89.13;98474.48;106570;1310;22211;-83
2022/10/25 11:01:02;;;;;;;8.60;3.80;;;;;;;14.30;89.29;98477.47;106423;1310;137968;-82
2022/10/25 11:03:40;;;;;;;5.10;3.80;;;;;;;14.33;89.17;98476.55;106537;1310;22166;-83
2022/10/25 11:06:16;;;;;;;5.80;4.00;;;;;;;14.38;89.21;98480.28;106417;1299;138364;-83
2022/10/25 11:08:45;;;;;;;7.80;3.90;;;;;;;14.43;89.04;98480.41;106423;1312;22228;-83
2022/10/25 11:11:18;;;;;;;4.30;3.40;;;;;;;14.54;89.19;98476.06;106523;1310;22984;-81
2022/10/25 11:14:00;;;;;;;8.30;3.90;;;;;;;14.70;89.19;98473.75;106425;1310;138178;-83
2022/10/25 11:16:38;;;;;;;7.30;4.00;;;;;;;14.81;89.14;98477.39;106566;1296;22165;-81
2022/10/25 11:19:45;;;;;;;8.20;4.00;;;;;;;14.87;88.61;98481.49;106487;1299;138119;-82
2022/10/25 11:22:49;;;;;;;7.40;3.40;;;;;;;14.84;87.93;98480.80;105866;1318;22161;-84
2022/10/25 11:25:28;;;;;;;8.20;4.20;;;;;;;14.91;88.42;98484.86;105692;1318;138822;-83